Time;durP1;ratioP1;P1;durP2;ratioP2;P2;SDS_P1;SDS_P2;PMS_P1;PMS_P2;Temp;Humidity;BMP_temperature;BMP_pressure;BME280_temperature;BME280_humidity;BME280_pressure;Samples;Min_cycle;Max_cycle;Signal;HPM_P1;HPM_P2
2021/12/31 00:02:17;;;;;;;;;8.25;7.25;;;;;13.36;79.05;101866.13;5075216;28;45256;-57
2021/12/31 00:04:42;;;;;;;;;13.50;8.50;;;;;13.35;79.23;101875.00;5083243;28;45353;-57
2021/12/31 00:07:09;;;;;;;;;10.25;6.75;;;;;13.33;79.27;101854.84;5083293;28;45249;-57
2021/12/31 00:09:35;;;;;;;;;2.25;0.75;;;;;13.33;79.46;101871.56;5082768;27;45374;-57
2021/12/31 00:12:02;;;;;;;;;13.50;8.50;;;;;13.33;79.23;101870.72;5082805;28;45305;-57
2021/12/31 00:14:28;;;;;;;;;9.25;7.00;;;;;13.33;79.09;101871.56;5083240;28;45405;-57
2021/12/31 00:16:54;;;;;;;;;9.00;9.00;;;;;13.33;79.03;101854.84;5082936;28;45302;-57
2021/12/31 00:19:19;;;;;;;;;10.25;7.25;;;;;13.33;79.22;101857.47;5082650;28;45317;-57
2021/12/31 00:21:48;;;;;;;;;9.25;7.00;;;;;13.31;79.12;101852.28;5082969;28;45306;-57
2021/12/31 00:24:13;;;;;;;;;13.50;11.25;;;;;13.31;79.06;101848.78;5082842;28;45322;-57
2021/12/31 00:26:39;;;;;;;;;10.00;8.50;;;;;13.28;78.98;101841.88;5082900;28;45367;-56
2021/12/31 00:29:04;;;;;;;;;10.00;6.00;;;;;13.28;79.14;101843.66;5082558;28;46160;-57
2021/12/31 00:31:30;;;;;;;;;11.00;9.00;;;;;13.26;79.36;101840.22;5082959;28;45255;-56
2021/12/31 00:33:55;;;;;;;;;7.50;6.00;;;;;13.26;79.36;101835.78;5082963;28;45215;-57
2021/12/31 00:36:21;;;;;;;;;8.25;6.75;;;;;13.26;79.25;101837.56;5082932;28;45469;-56
2021/12/31 00:38:46;;;;;;;;;8.25;6.00;;;;;13.26;79.49;101845.50;5082541;28;46201;-57
2021/12/31 00:41:12;;;;;;;;;9.75;9.00;;;;;13.24;79.22;101848.25;5082602;28;45221;-56
2021/12/31 00:43:37;;;;;;;;;10.00;7.50;;;;;13.23;79.07;101849.19;5082467;28;45223;-56
2021/12/31 00:46:03;;;;;;;;;12.50;9.25;;;;;13.21;79.13;101847.56;5082910;28;45216;-56
2021/12/31 00:48:29;;;;;;;;;14.50;11.25;;;;;13.20;79.12;101844.06;5082256;28;46054;-56
2021/12/31 00:50:56;;;;;;;;;25.75;18.50;;;;;13.18;79.20;101843.22;5063894;28;45400;-57
2021/12/31 00:53:22;;;;;;;;;14.75;11.50;;;;;13.15;79.30;101846.03;5062143;28;45324;-57
2021/12/31 00:55:48;;;;;;;;;12.25;12.25;;;;;13.13;79.39;101843.50;5070390;28;45307;-57
2021/12/31 00:58:13;;;;;;;;;10.00;8.50;;;;;13.13;79.29;101846.13;5064556;27;46175;-56
2021/12/31 01:00:39;;;;;;;;;11.00;11.00;;;;;13.11;79.00;101845.38;5068556;28;45202;-56
2021/12/31 01:03:04;;;;;;;;;13.00;10.75;;;;;13.10;78.91;101838.34;5081099;28;45211;-55
2021/12/31 01:05:30;;;;;;;;;13.75;9.75;;;;;13.06;78.97;101834.16;5082502;28;45260;-56
2021/12/31 01:07:56;;;;;;;;;12.50;12.50;;;;;13.04;79.11;101843.13;5081384;28;45955;-57
2021/12/31 01:10:24;;;;;;;;;13.00;9.75;;;;;13.03;79.00;101836.09;5082342;27;45247;-56
2021/12/31 01:12:51;;;;;;;;;17.25;14.50;;;;;12.99;78.84;101831.91;5082068;28;45379;-57
2021/12/31 01:15:34;;;;;;;;;8.25;6.50;;;;;12.97;78.93;101825.84;5082183;28;45265;-56
2021/12/31 01:20:25;;;;;;;;;12.00;6.50;;;;;12.96;78.81;101826.78;5082018;28;45447;-56
2021/12/31 01:22:51;;;;;;;;;9.00;8.00;;;;;12.96;78.90;101819.72;5082343;28;45350;-56
2021/12/31 01:25:16;;;;;;;;;8.25;6.75;;;;;12.96;78.87;101808.28;5082068;28;45611;-56
2021/12/31 01:27:43;;;;;;;;;7.00;6.75;;;;;12.95;78.74;101814.47;5081801;28;45298;-56
2021/12/31 01:30:13;;;;;;;;;7.50;5.00;;;;;12.93;78.71;101825.13;5081659;28;45456;-56
2021/12/31 01:32:40;;;;;;;;;12.50;9.00;;;;;12.93;78.72;101819.00;5081930;28;45290;-56
2021/12/31 01:35:06;;;;;;;;;8.25;8.25;;;;;12.93;78.56;101825.13;5081638;28;45552;-57
2021/12/31 01:37:31;;;;;;;;;6.75;6.75;;;;;12.93;78.35;101827.78;5082042;28;46189;-56
2021/12/31 01:39:57;;;;;;;;;10.75;8.00;;;;;12.92;78.27;101843.75;5081741;28;45571;-57
2021/12/31 01:42:29;;;;;;;;;10.75;9.00;;;;;12.90;78.38;101843.81;5081928;28;45478;-57
2021/12/31 01:44:58;;;;;;;;;7.75;7.75;;;;;12.90;78.44;101851.75;5081783;28;45445;-56
2021/12/31 01:47:34;;;;;;;;;11.75;9.00;;;;;12.89;78.39;101852.69;5081363;28;45379;-56
2021/12/31 01:50:06;;;;;;;;;9.50;7.00;;;;;12.89;78.40;101849.19;5070319;28;45336;-57
2021/12/31 01:52:32;;;;;;;;;9.50;6.25;;;;;12.88;78.23;101836.91;5061388;28;45308;-57
2021/12/31 01:54:58;;;;;;;;;9.00;9.00;;;;;12.86;78.24;101842.25;5062282;28;45518;-57
2021/12/31 01:57:25;;;;;;;;;10.75;9.25;;;;;12.83;77.92;101840.63;5068660;27;46111;-57
2021/12/31 01:59:50;;;;;;;;;6.00;5.75;;;;;12.83;78.21;101848.56;5065177;28;45434;-56
2021/12/31 02:02:16;;;;;;;;;9.50;9.50;;;;;12.81;78.19;101847.78;5073295;28;45484;-57
2021/12/31 02:04:42;;;;;;;;;13.00;9.00;;;;;12.81;78.32;101845.16;5081559;27;45247;-56
2021/12/31 02:07:08;;;;;;;;;11.00;10.75;;;;;12.79;78.19;101841.69;5081346;28;45359;-57
2021/12/31 02:09:43;;;;;;;;;9.00;5.00;;;;;12.78;77.99;101840.00;5081376;28;45554;-56
2021/12/31 02:12:09;;;;;;;;;9.75;8.00;;;;;12.77;78.13;101843.59;5081192;27;45519;-57
2021/12/31 02:14:36;;;;;;;;;12.25;11.00;;;;;12.77;78.17;101829.50;5081607;28;45417;-57
2021/12/31 02:17:07;;;;;;;;;11.75;10.50;;;;;12.76;78.43;101822.50;5080907;28;45473;-57
2021/12/31 02:19:32;;;;;;;;;12.25;10.00;;;;;12.74;78.38;101827.88;5081352;28;45154;-56
2021/12/31 02:21:58;;;;;;;;;14.25;13.00;;;;;12.73;78.34;101820.91;5081273;28;45314;-57
2021/12/31 02:24:24;;;;;;;;;10.75;10.00;;;;;12.71;78.08;101828.03;5081496;28;45296;-57
2021/12/31 02:26:50;;;;;;;;;11.00;10.00;;;;;12.69;78.07;101821.97;5080712;27;46491;-57
2021/12/31 02:29:17;;;;;;;;;11.50;10.00;;;;;12.68;78.23;101828.19;5081044;28;45387;-57
2021/12/31 02:31:42;;;;;;;;;12.25;10.50;;;;;12.64;78.00;101833.69;5081055;28;45343;-57
2021/12/31 02:34:08;;;;;;;;;10.75;10.75;;;;;12.61;78.16;101826.78;5081291;28;45275;-56
2021/12/31 02:36:33;;;;;;;;;12.25;9.25;;;;;12.58;78.19;101825.16;5080740;28;45813;-57
2021/12/31 02:38:59;;;;;;;;;10.75;9.50;;;;;12.57;78.02;101818.16;5081318;28;45447;-57
2021/12/31 02:41:24;;;;;;;;;15.50;11.00;;;;;12.56;78.01;101821.75;5080861;28;45282;-57
2021/12/31 02:43:50;;;;;;;;;13.50;10.25;;;;;12.54;78.21;101813.00;5081277;28;45236;-56
2021/12/31 02:46:16;;;;;;;;;13.00;10.75;;;;;12.52;78.12;101809.59;5080941;28;45223;-56
2021/12/31 02:48:41;;;;;;;;;13.50;12.25;;;;;12.50;77.95;101795.63;5080556;28;45380;-57
2021/12/31 02:51:07;;;;;;;;;13.75;10.25;;;;;12.48;77.87;101792.22;5060779;28;45515;-57
2021/12/31 02:53:38;;;;;;;;;10.25;9.75;;;;;12.47;77.91;101785.19;5060435;28;45552;-56
2021/12/31 02:56:09;;;;;;;;;10.00;10.00;;;;;12.47;77.98;101795.75;5069478;28;46861;-56
2021/12/31 02:58:36;;;;;;;;;15.50;11.50;;;;;12.45;77.62;101800.28;5060126;28;45319;-57
2021/12/31 03:01:03;;;;;;;;;9.75;9.00;;;;;12.44;77.80;101785.34;5067200;28;45288;-56
2021/12/31 03:03:30;;;;;;;;;11.75;10.75;;;;;12.43;77.81;101788.06;5080798;28;45611;-56
2021/12/31 03:05:56;;;;;;;;;12.75;11.50;;;;;12.42;77.49;101797.78;5080535;28;45981;-56
2021/12/31 03:08:25;;;;;;;;;11.50;11.00;;;;;12.39;77.58;101803.22;5080701;28;45348;-56
2021/12/31 03:10:53;;;;;;;;;10.50;8.25;;;;;12.38;77.70;101796.22;5080695;28;45464;-55
2021/12/31 03:13:19;;;;;;;;;10.50;9.25;;;;;12.36;77.50;101806.00;5080594;28;45338;-57
2021/12/31 03:15:45;;;;;;;;;12.50;10.00;;;;;12.35;77.56;101806.94;5080203;28;45369;-56
2021/12/31 03:18:11;;;;;;;;;10.00;10.00;;;;;12.34;77.67;101807.88;5080683;28;46480;-56
2021/12/31 03:20:43;;;;;;;;;15.00;11.00;;;;;12.33;77.60;101821.19;5080546;28;45402;-56
2021/12/31 03:23:09;;;;;;;;;9.75;9.75;;;;;12.33;77.54;101819.41;5080483;28;45276;-56
2021/12/31 03:25:35;;;;;;;;;12.00;9.50;;;;;12.33;77.37;101831.75;5080138;28;45348;-57
2021/12/31 03:28:00;;;;;;;;;10.00;8.50;;;;;12.30;77.50;101836.22;5080206;28;45346;-56
2021/12/31 03:30:26;;;;;;;;;7.00;6.25;;;;;12.28;77.38;101840.75;5080480;28;45880;-56
2021/12/31 03:32:52;;;;;;;;;5.75;4.75;;;;;12.27;77.39;101851.38;5083425;28;45532;-56
2021/12/31 03:35:18;;;;;;;;;3.00;3.00;;;;;12.27;77.12;101859.31;5083675;28;45418;-56
2021/12/31 03:37:43;;;;;;;;;10.25;5.00;;;;;12.27;77.06;101856.66;5083678;28;45339;-56
2021/12/31 03:40:11;;;;;;;;;9.50;5.25;;;;;12.27;76.82;101846.97;5084002;28;45498;-56
2021/12/31 03:42:37;;;;;;;;;8.25;4.75;;;;;12.27;77.01;101832.91;5083844;28;45543;-57
2021/12/31 03:45:03;;;;;;;;;11.00;4.00;;;;;12.25;77.02;101817.13;5083476;28;46075;-56
2021/12/31 03:47:29;;;;;;;;;7.50;4.25;;;;;12.26;76.95;101810.06;5083646;28;45252;-56
2021/12/31 03:49:54;;;;;;;;;7.50;5.50;;;;;12.26;76.91;101813.56;5073201;28;45235;-57
2021/12/31 03:52:19;;;;;;;;;8.75;6.00;;;;;12.26;76.95;101808.25;5063629;28;45228;-56
2021/12/31 03:54:45;;;;;;;;;9.75;5.00;;;;;12.27;76.65;101809.13;5063118;28;45226;-55
2021/12/31 03:57:11;;;;;;;;;7.25;5.00;;;;;12.27;76.83;101802.03;5072302;28;45331;-56
2021/12/31 03:59:36;;;;;;;;;5.00;5.00;;;;;12.26;76.92;101797.69;5067612;28;45342;-57
2021/12/31 04:02:02;;;;;;;;;4.75;4.75;;;;;12.26;76.70;101784.50;5073635;28;45294;-57
2021/12/31 04:04:27;;;;;;;;;7.50;7.50;;;;;12.25;76.66;101774.84;5083277;27;45232;-56
2021/12/31 04:06:53;;;;;;;;;5.75;5.00;;;;;12.24;76.63;101782.84;5083422;28;45254;-56
2021/12/31 04:09:19;;;;;;;;;4.50;3.50;;;;;12.23;76.62;101791.69;5083367;28;45297;-56
2021/12/31 04:11:44;;;;;;;;;6.25;6.25;;;;;12.20;76.52;101771.56;5083318;28;45563;-57
2021/12/31 04:14:10;;;;;;;;;9.25;5.25;;;;;12.19;76.60;101766.38;5083076;28;45380;-57
2021/12/31 04:16:35;;;;;;;;;8.50;6.25;;;;;12.19;76.69;101779.59;5083374;28;45445;-56
2021/12/31 04:19:01;;;;;;;;;5.25;4.25;;;;;12.18;76.38;101793.72;5083104;28;45411;-57
2021/12/31 04:21:27;;;;;;;;;7.25;5.00;;;;;12.16;76.57;101788.50;5083195;28;45460;-56
2021/12/31 04:24:08;;;;;;;;;4.00;4.00;;;;;12.17;76.61;101784.09;5082714;28;45331;-57
2021/12/31 04:26:33;;;;;;;;;5.25;5.00;;;;;12.16;76.54;101775.28;5082539;28;45328;-56
2021/12/31 04:28:59;;;;;;;;;6.00;5.00;;;;;12.14;76.48;101774.50;5082778;28;45515;-56
2021/12/31 04:31:24;;;;;;;;;6.25;6.25;;;;;12.15;76.40;101767.44;5069564;28;45316;-56
2021/12/31 04:33:50;;;;;;;;;3.75;3.25;;;;;12.15;76.53;101757.72;5081392;28;45581;-57
2021/12/31 04:36:15;;;;;;;;;5.75;5.00;;;;;12.16;76.33;101759.44;5082963;28;45356;-56
2021/12/31 04:38:41;;;;;;;;;4.75;4.75;;;;;12.14;76.08;101742.81;5082919;28;45452;-56
2021/12/31 04:41:07;;;;;;;;;8.00;5.00;;;;;12.14;76.15;101737.53;5082846;28;45335;-57
2021/12/31 04:43:32;;;;;;;;;7.75;4.25;;;;;12.15;76.37;101747.16;5081504;28;45457;-56
2021/12/31 04:45:58;;;;;;;;;7.00;5.00;;;;;12.15;76.33;101744.53;5082753;28;45362;-57
2021/12/31 04:48:24;;;;;;;;;5.75;5.00;;;;;12.15;76.38;101746.31;5082555;28;45334;-56
2021/12/31 04:50:50;;;;;;;;;5.00;4.00;;;;;12.14;76.41;101763.09;5064786;28;45248;-57
2021/12/31 04:53:16;;;;;;;;;4.00;4.00;;;;;12.12;76.28;101759.69;5062047;28;45289;-57
2021/12/31 04:55:41;;;;;;;;;8.00;6.25;;;;;12.11;76.20;101773.81;5069453;28;45343;-56
2021/12/31 04:58:07;;;;;;;;;5.75;5.00;;;;;12.09;76.40;101776.53;5064221;28;45468;-57
2021/12/31 05:00:33;;;;;;;;;5.00;4.00;;;;;12.10;76.39;101772.97;5067369;28;45176;-56
2021/12/31 05:03:06;;;;;;;;;6.25;6.25;;;;;12.08;76.51;101777.44;5080031;28;45433;-57
2021/12/31 05:05:31;;;;;;;;;8.75;6.25;;;;;12.07;76.33;101774.88;5082353;28;45472;-57
2021/12/31 05:07:57;;;;;;;;;6.50;4.25;;;;;12.07;76.29;101769.59;5082317;28;45129;-57
2021/12/31 05:10:22;;;;;;;;;8.00;7.25;;;;;12.06;76.42;101775.81;5082530;28;45156;-57
2021/12/31 05:12:52;;;;;;;;;9.50;7.75;;;;;12.03;76.42;101779.47;5081761;28;46209;-57
2021/12/31 05:15:25;;;;;;;;;8.00;5.25;;;;;12.00;76.45;101772.53;5082071;28;45455;-56
2021/12/31 05:17:50;;;;;;;;;8.25;6.25;;;;;11.99;76.69;101777.91;5082044;28;45335;-57
2021/12/31 05:20:16;;;;;;;;;8.75;6.25;;;;;11.98;76.49;101776.19;5082238;28;45502;-57
2021/12/31 05:22:41;;;;;;;;;9.50;7.00;;;;;11.96;76.30;101771.00;5082033;28;46147;-56
2021/12/31 05:25:07;;;;;;;;;8.25;6.75;;;;;11.96;76.62;101760.44;5082011;28;45468;-57
2021/12/31 05:27:33;;;;;;;;;6.50;5.25;;;;;11.96;76.47;101776.28;5081909;28;45239;-55
2021/12/31 05:29:58;;;;;;;;;6.50;6.50;;;;;11.95;76.42;101769.28;5081949;28;45323;-57
2021/12/31 05:32:24;;;;;;;;;5.25;5.25;;;;;11.95;76.51;101768.44;5081657;28;45423;-57
2021/12/31 05:34:49;;;;;;;;;11.50;9.25;;;;;11.95;76.38;101760.50;5082059;28;45379;-55
2021/12/31 05:37:15;;;;;;;;;8.50;8.50;;;;;11.95;76.45;101761.38;5081809;28;45424;-57
2021/12/31 05:39:40;;;;;;;;;9.00;8.00;;;;;11.93;76.43;101751.81;5082206;28;45172;-57
2021/12/31 05:42:06;;;;;;;;;4.50;4.00;;;;;11.92;76.44;101737.72;5081474;28;45555;-57
2021/12/31 05:44:31;;;;;;;;;5.25;5.25;;;;;11.92;76.59;101736.88;5081951;28;45203;-56
2021/12/31 05:46:57;;;;;;;;;7.50;7.50;;;;;11.91;76.46;101737.81;5081735;28;45239;-57
2021/12/31 05:49:23;;;;;;;;;7.25;5.75;;;;;11.90;76.41;101728.19;5075987;28;45410;-57
2021/12/31 05:51:50;;;;;;;;;7.00;7.00;;;;;11.90;76.30;101723.75;5061231;28;45238;-56
2021/12/31 05:54:15;;;;;;;;;6.00;6.00;;;;;11.89;76.50;101708.84;5061010;28;45420;-57
2021/12/31 05:56:41;;;;;;;;;12.50;8.00;;;;;11.88;76.35;101720.34;5071028;28;45434;-57
2021/12/31 05:59:06;;;;;;;;;5.50;5.50;;;;;11.87;76.75;101721.28;5065316;28;45448;-57
2021/12/31 06:01:32;;;;;;;;;11.00;9.50;;;;;11.85;76.88;101725.78;5068446;27;45913;-56
2021/12/31 06:03:58;;;;;;;;;8.50;5.50;;;;;11.86;76.47;101737.19;5081404;28;45723;-56
2021/12/31 06:06:23;;;;;;;;;8.25;5.00;;;;;11.83;76.62;101738.19;5081565;28;45329;-57
2021/12/31 06:08:49;;;;;;;;;8.00;8.00;;;;;11.84;76.63;101739.91;5081760;28;45314;-57
2021/12/31 06:11:14;;;;;;;;;9.50;7.25;;;;;11.84;76.32;101752.25;5080934;28;45991;-57
2021/12/31 06:13:40;;;;;;;;;7.75;6.25;;;;;11.81;76.61;101757.69;5081613;28;45169;-57
2021/12/31 06:16:06;;;;;;;;;12.50;8.00;;;;;11.81;76.69;101765.59;5081295;28;45363;-56
2021/12/31 06:18:31;;;;;;;;;8.50;7.00;;;;;11.81;76.44;101765.59;5081514;28;45171;-57
2021/12/31 06:20:57;;;;;;;;;9.00;8.00;;;;;11.82;76.69;101770.78;5081111;28;46165;-56
2021/12/31 06:23:22;;;;;;;;;10.00;9.25;;;;;11.82;76.56;101751.47;5081275;28;45226;-57
2021/12/31 06:25:48;;;;;;;;;12.00;10.00;;;;;11.84;76.75;101752.25;5081279;28;45611;-57
2021/12/31 06:28:14;;;;;;;;;11.25;10.00;;;;;11.87;76.75;101755.59;5081214;28;45343;-56
2021/12/31 06:30:39;;;;;;;;;14.50;11.25;;;;;11.88;76.75;101752.03;5080858;28;45222;-57
2021/12/31 06:33:05;;;;;;;;;14.25;11.00;;;;;11.89;76.45;101752.88;5081008;28;45417;-57
2021/12/31 06:35:31;;;;;;;;;16.25;14.75;;;;;11.89;76.30;101752.88;5081028;28;45309;-57
2021/12/31 06:37:58;;;;;;;;;13.50;13.25;;;;;11.89;76.42;101751.09;5081170;28;45371;-57
2021/12/31 06:40:24;;;;;;;;;18.00;13.25;;;;;11.88;76.40;101759.94;5080849;28;45999;-57
2021/12/31 06:42:50;;;;;;;;;17.25;11.50;;;;;11.88;76.47;101751.19;5080760;28;45257;-56
2021/12/31 06:45:16;;;;;;;;;11.00;9.75;;;;;11.86;76.33;101745.97;5080883;28;45227;-57
2021/12/31 06:47:41;;;;;;;;;14.50;11.75;;;;;11.86;76.24;101761.81;5081050;28;45449;-56
2021/12/31 06:50:07;;;;;;;;;13.50;11.50;;;;;11.86;76.63;101768.88;5068535;28;46112;-56
2021/12/31 06:52:38;;;;;;;;;10.00;10.00;;;;;11.82;76.44;101775.22;5060679;28;45219;-57
2021/12/31 06:55:05;;;;;;;;;12.00;9.50;;;;;11.82;76.40;101772.59;5062400;28;45510;-57
2021/12/31 06:57:30;;;;;;;;;9.50;9.50;;;;;11.80;76.52;101761.22;5067921;27;45384;-57
2021/12/31 06:59:56;;;;;;;;;9.75;9.00;;;;;11.75;76.32;101738.53;5065324;28;45227;-57
2021/12/31 07:02:21;;;;;;;;;12.50;8.00;;;;;11.73;76.37;101734.25;5073548;28;45472;-57
2021/12/31 07:04:47;;;;;;;;;8.25;7.75;;;;;11.72;76.44;101756.31;5081002;28;45525;-57
2021/12/31 07:07:13;;;;;;;;;9.75;9.00;;;;;11.67;76.34;101764.44;5082895;28;45469;-57
2021/12/31 07:09:39;;;;;;;;;4.50;4.50;;;;;11.67;76.49;101769.72;5084184;28;45478;-57
2021/12/31 07:12:05;;;;;;;;;10.50;8.50;;;;;11.68;76.81;101779.34;5083982;28;45574;-57
2021/12/31 07:14:30;;;;;;;;;10.50;6.50;;;;;11.68;76.76;101791.69;5084277;28;45334;-57
2021/12/31 07:16:56;;;;;;;;;8.25;7.50;;;;;11.67;76.83;101782.91;5083972;28;45318;-56
2021/12/31 07:19:21;;;;;;;;;9.00;7.00;;;;;11.67;76.69;101775.00;5083985;28;46076;-56
2021/12/31 07:21:47;;;;;;;;;7.00;7.00;;;;;11.67;76.52;101780.25;5084091;28;45318;-57
2021/12/31 07:24:12;;;;;;;;;10.75;7.00;;;;;11.68;76.66;101802.22;5084122;28;45364;-57
2021/12/31 07:26:38;;;;;;;;;6.75;5.75;;;;;11.66;76.80;101807.59;5083923;28;45373;-57
2021/12/31 07:29:03;;;;;;;;;7.75;5.75;;;;;11.66;76.60;101807.59;5083631;28;45406;-56
2021/12/31 07:31:28;;;;;;;;;9.25;8.00;;;;;11.68;76.54;101799.59;5083886;28;45318;-57
2021/12/31 07:33:54;;;;;;;;;9.50;5.00;;;;;11.71;76.56;101794.19;5083736;28;45366;-57
2021/12/31 07:36:19;;;;;;;;;8.00;6.25;;;;;11.72;76.71;101802.03;5084016;28;45620;-57
2021/12/31 07:38:57;;;;;;;;;8.50;7.00;;;;;11.75;76.48;101799.25;5083543;28;45363;-57
2021/12/31 07:41:22;;;;;;;;;9.00;5.00;;;;;11.78;76.73;101789.47;5083459;28;45312;-56
2021/12/31 07:43:48;;;;;;;;;11.25;9.00;;;;;11.79;76.38;101785.91;5083833;28;45287;-57
2021/12/31 07:46:13;;;;;;;;;11.00;9.00;;;;;11.80;76.52;101775.31;5083864;28;45380;-57
2021/12/31 07:48:39;;;;;;;;;5.00;5.00;;;;;11.80;76.43;101772.66;5083423;28;45533;-56
2021/12/31 07:51:04;;;;;;;;;7.50;7.25;;;;;11.80;76.22;101771.78;5063308;28;45232;-57
2021/12/31 07:53:30;;;;;;;;;8.00;7.00;;;;;11.79;76.40;101773.56;5063599;28;45385;-57
2021/12/31 07:55:55;;;;;;;;;6.50;5.00;;;;;11.79;76.44;101778.00;5071928;28;45274;-57
2021/12/31 07:58:21;;;;;;;;;8.25;7.00;;;;;11.78;76.31;101790.34;5063254;28;46156;-57
2021/12/31 08:00:46;;;;;;;;;10.00;8.25;;;;;11.80;76.16;101783.22;5067024;28;45325;-57
2021/12/31 08:03:15;;;;;;;;;9.25;7.50;;;;;11.82;76.35;101785.78;5083312;28;45306;-56
2021/12/31 08:05:40;;;;;;;;;8.75;7.75;;;;;11.85;76.30;101797.06;5083412;28;45237;-56
2021/12/31 08:08:06;;;;;;;;;8.75;8.75;;;;;11.89;76.21;101795.97;5083369;28;45312;-57
2021/12/31 08:10:35;;;;;;;;;10.50;8.75;;;;;11.92;76.28;101790.53;5083254;28;45241;-57
2021/12/31 08:13:02;;;;;;;;;8.00;7.50;;;;;11.96;76.07;101801.81;5083060;28;45383;-57
2021/12/31 08:15:28;;;;;;;;;9.50;7.50;;;;;11.97;76.04;101822.88;5083171;28;45394;-57
2021/12/31 08:17:54;;;;;;;;;6.50;5.50;;;;;12.02;76.21;101825.31;5082825;28;45329;-57
2021/12/31 08:20:20;;;;;;;;;9.00;6.00;;;;;12.06;76.01;101832.13;5083040;28;45216;-57
2021/12/31 08:22:45;;;;;;;;;9.25;8.75;;;;;12.13;75.73;101819.50;5083315;28;45189;-56
2021/12/31 08:25:11;;;;;;;;;14.25;8.75;;;;;12.18;76.18;101812.22;5082973;28;45593;-57
2021/12/31 08:27:37;;;;;;;;;10.50;6.50;;;;;12.23;75.64;101813.69;5082867;28;45997;-56
2021/12/31 08:30:03;;;;;;;;;9.25;8.50;;;;;12.28;75.55;101816.97;5082864;28;45474;-56
2021/12/31 08:32:28;;;;;;;;;9.25;6.50;;;;;12.32;75.58;101806.22;5083110;28;45208;-57
2021/12/31 08:34:54;;;;;;;;;8.50;7.75;;;;;12.39;75.62;101797.06;5082774;28;45297;-57
2021/12/31 08:37:19;;;;;;;;;8.50;8.00;;;;;12.41;75.04;101795.22;5082793;28;45930;-57
2021/12/31 08:39:45;;;;;;;;;11.00;8.25;;;;;12.44;75.21;101816.22;5082737;28;45378;-57
2021/12/31 08:42:10;;;;;;;;;11.00;8.00;;;;;12.44;75.00;101825.00;5082988;28;45341;-57
2021/12/31 08:44:36;;;;;;;;;9.75;6.00;;;;;12.43;75.04;101822.44;5082967;28;45418;-56
2021/12/31 08:47:01;;;;;;;;;12.25;11.25;;;;;12.47;74.94;101818.69;5082640;28;45948;-57
2021/12/31 08:49:27;;;;;;;;;10.50;8.75;;;;;12.48;74.85;101797.50;5075911;28;45429;-56
2021/12/31 08:51:52;;;;;;;;;11.25;9.50;;;;;12.55;74.88;101813.88;5062538;28;45310;-57
2021/12/31 08:54:18;;;;;;;;;7.75;7.50;;;;;12.62;74.62;101825.00;5062184;28;45469;-57
2021/12/31 08:56:44;;;;;;;;;12.25;9.25;;;;;12.68;74.47;101836.13;5070845;28;46299;-56
2021/12/31 08:59:10;;;;;;;;;9.25;8.00;;;;;12.75;74.49;101840.16;5065797;28;45401;-57
2021/12/31 09:01:36;;;;;;;;;12.00;9.00;;;;;12.81;74.51;101850.44;5069032;28;45136;-56
2021/12/31 09:04:02;;;;;;;;;9.50;8.00;;;;;12.86;74.27;101844.91;5082494;28;45302;-57
2021/12/31 09:06:27;;;;;;;;;11.50;10.25;;;;;12.88;74.18;101855.41;5082532;28;46050;-57
2021/12/31 09:08:53;;;;;;;;;10.25;8.25;;;;;12.89;74.24;101842.13;5082410;28;45238;-57
2021/12/31 09:11:18;;;;;;;;;10.75;7.00;;;;;12.93;74.27;101850.72;5082125;28;45305;-57
2021/12/31 09:13:46;;;;;;;;;11.00;9.75;;;;;12.96;74.14;101851.44;5082487;28;45219;-57
2021/12/31 09:16:12;;;;;;;;;11.00;10.50;;;;;12.96;74.20;101843.50;5082117;28;45373;-57
2021/12/31 09:18:37;;;;;;;;;12.00;9.00;;;;;12.97;73.97;101847.00;5081832;28;45357;-57
2021/12/31 09:21:04;;;;;;;;;11.25;9.50;;;;;12.98;73.78;101840.78;5074159;28;45257;-57
2021/12/31 09:23:29;;;;;;;;;9.75;9.25;;;;;12.97;73.62;101837.28;5075616;28;45317;-57
2021/12/31 09:25:56;;;;;;;;;13.00;10.00;;;;;12.95;73.66;101838.28;5081769;28;46213;-57
2021/12/31 09:28:23;;;;;;;;;9.00;8.50;;;;;12.94;73.60;101849.78;5081880;28;45250;-57
2021/12/31 09:30:48;;;;;;;;;13.50;12.00;;;;;12.92;73.71;101844.59;5081314;28;45239;-58
2021/12/31 09:33:14;;;;;;;;;12.00;8.00;;;;;12.90;73.50;101845.63;5081993;28;45173;-57
2021/12/31 09:35:41;;;;;;;;;10.50;9.50;;;;;12.86;73.68;101840.47;5081658;28;45325;-57
2021/12/31 09:38:09;;;;;;;;;11.75;11.75;;;;;12.83;73.54;101847.72;5081614;28;45394;-56
2021/12/31 09:40:39;;;;;;;;;14.00;10.00;;;;;12.84;73.88;101852.06;5081932;28;45358;-56
2021/12/31 09:43:08;;;;;;;;;13.25;12.00;;;;;12.86;73.63;101866.91;5081571;28;45604;-57
2021/12/31 09:45:39;;;;;;;;;13.00;10.75;;;;;12.87;73.82;101883.63;5081636;28;46186;-57
2021/12/31 09:48:16;;;;;;;;;12.75;12.75;;;;;12.86;73.75;101893.34;5080152;28;45520;-57
2021/12/31 09:50:44;;;;;;;;;15.50;10.00;;;;;12.86;73.67;101889.84;5064691;28;45327;-57
2021/12/31 09:53:12;;;;;;;;;13.00;13.00;;;;;12.87;73.69;101899.50;5061304;28;45538;-57
2021/12/31 09:55:42;;;;;;;;;11.50;10.25;;;;;12.91;73.69;101900.22;5067650;28;46159;-57
2021/12/31 09:58:09;;;;;;;;;12.25;11.25;;;;;12.94;73.78;101902.69;5062871;27;45485;-57
2021/12/31 10:00:36;;;;;;;;;12.25;9.25;;;;;13.00;73.88;101905.03;5066012;28;45407;-56
2021/12/31 10:03:12;;;;;;;;;12.25;10.00;;;;;13.04;73.60;101904.81;5079864;28;45287;-57
2021/12/31 10:05:42;;;;;;;;;10.75;9.25;;;;;13.06;73.61;101891.50;5081370;28;45388;-57
2021/12/31 10:08:26;;;;;;;;;7.25;6.00;;;;;13.09;73.51;101896.63;5080248;28;45328;-57
2021/12/31 10:11:22;;;;;;;;;8.00;6.00;;;;;13.12;73.52;101910.56;5080982;28;45250;-57
2021/12/31 10:13:56;;;;;;;;;6.00;5.00;;;;;13.14;73.11;101918.41;5068373;28;45333;-57
2021/12/31 10:16:30;;;;;;;;;5.25;4.25;;;;;13.16;73.18;101921.84;5081170;28;45420;-57
2021/12/31 10:19:14;;;;;;;;;10.25;6.00;;;;;13.21;73.18;101919.00;5080995;28;45354;-57
2021/12/31 10:21:46;;;;;;;;;6.50;6.50;;;;;13.25;73.27;101929.31;5081448;28;45299;-57
2021/12/31 10:24:24;;;;;;;;;8.00;6.00;;;;;13.29;73.07;101927.41;5081221;27;45165;-57
2021/12/31 10:26:54;;;;;;;;;10.00;6.25;;;;;13.34;73.04;101920.91;5080445;28;46380;-57
2021/12/31 10:29:21;;;;;;;;;6.50;6.50;;;;;13.39;72.96;101912.75;5080973;28;45360;-56
2021/12/31 10:31:51;;;;;;;;;7.25;6.25;;;;;13.42;73.02;101920.50;5080899;28;45641;-56
2021/12/31 10:34:37;;;;;;;;;10.75;6.00;;;;;13.44;72.82;101937.19;5081223;28;45472;-57
2021/12/31 10:37:12;;;;;;;;;5.25;5.00;;;;;13.48;72.87;101951.09;5080683;28;45392;-56
2021/12/31 10:39:39;;;;;;;;;7.00;5.25;;;;;13.51;72.68;101966.81;5080971;28;45326;-57
2021/12/31 10:42:07;;;;;;;;;9.50;6.00;;;;;13.55;72.60;101974.53;5082591;28;45345;-57
2021/12/31 10:44:53;;;;;;;;;6.75;6.75;;;;;13.57;72.37;101985.88;5084801;28;45309;-57
2021/12/31 10:47:29;;;;;;;;;11.50;11.50;;;;;13.60;72.68;101998.13;5084440;28;45364;-57
2021/12/31 10:50:00;;;;;;;;;8.75;6.00;;;;;13.63;72.58;102003.25;5073918;28;45417;-57
2021/12/31 10:52:34;;;;;;;;;6.00;6.00;;;;;13.68;72.31;101998.59;5064407;28;45235;-57
2021/12/31 10:55:15;;;;;;;;;7.00;6.75;;;;;13.72;72.63;101997.47;5065476;28;45789;-57
2021/12/31 10:57:41;;;;;;;;;7.25;7.25;;;;;13.74;72.23;101992.09;5069273;27;46167;-56
2021/12/31 11:00:10;;;;;;;;;9.25;6.00;;;;;13.77;72.20;101987.50;5068249;28;45476;-57
2021/12/31 11:02:37;;;;;;;;;10.50;6.50;;;;;13.80;72.18;101973.25;5078864;28;45254;-57
2021/12/31 11:05:03;;;;;;;;;9.25;7.75;;;;;13.83;72.23;101978.41;5083003;28;45226;-56
2021/12/31 11:07:30;;;;;;;;;5.00;5.00;;;;;13.85;72.38;101990.63;5084052;28;46298;-57
2021/12/31 11:10:00;;;;;;;;;5.25;5.25;;;;;13.89;72.31;101996.59;5084249;28;45349;-55
2021/12/31 11:12:30;;;;;;;;;5.75;5.75;;;;;13.90;72.18;101993.88;5083943;28;45290;-57
2021/12/31 11:14:55;;;;;;;;;6.50;5.50;;;;;13.94;72.12;101994.56;5084400;28;45284;-56
2021/12/31 11:17:22;;;;;;;;;4.75;4.00;;;;;13.97;72.18;101987.28;5083746;28;45354;-57
2021/12/31 11:19:49;;;;;;;;;7.75;6.50;;;;;14.01;71.87;101984.50;5083861;28;45413;-57
2021/12/31 11:22:17;;;;;;;;;7.50;6.00;;;;;14.07;72.03;101994.78;5083325;28;45295;-57